createdAt,value
2018-03-19T00:00:52.162Z,44.45
2018-03-19T00:03:21.526Z,44.49
2018-03-19T00:05:51.505Z,44.61
2018-03-19T00:08:21.729Z,44.73
2018-03-19T00:10:51.128Z,45.13
2018-03-19T00:13:20.320Z,45.33
2018-03-19T00:15:49.566Z,45.18
2018-03-19T00:18:18.801Z,45.28
2018-03-19T00:20:48.001Z,45.56
2018-03-19T00:23:17.259Z,45.39
2018-03-19T00:25:46.459Z,44.87
2018-03-19T00:28:15.701Z,45.51
2018-03-19T00:30:45.000Z,45.47
2018-03-19T00:33:14.223Z,45.32
2018-03-19T00:35:43.462Z,45.81
2018-03-19T00:38:12.758Z,45.64
2018-03-19T00:40:41.971Z,45.75
2018-03-19T00:43:11.177Z,45.92
2018-03-19T00:45:40.410Z,45.85
2018-03-19T00:48:09.593Z,46.64
2018-03-19T00:50:38.794Z,45.90
2018-03-19T00:53:07.996Z,46.31
2018-03-19T00:55:37.198Z,45.97
2018-03-19T00:58:07.168Z,46.10
2018-03-19T01:00:36.399Z,46.52
2018-03-19T01:03:05.634Z,47.63
2018-03-19T01:05:34.995Z,46.84
2018-03-19T01:08:04.231Z,47.83
2018-03-19T01:10:34.199Z,46.87
2018-03-19T01:13:03.416Z,46.67
2018-03-19T01:15:32.688Z,47.20
2018-03-19T01:18:01.888Z,47.13
2018-03-19T01:20:31.125Z,47.35
2018-03-19T01:23:00.506Z,47.25
2018-03-19T01:25:29.768Z,47.55
2018-03-19T01:27:59.143Z,47.80
2018-03-19T01:30:29.139Z,47.95
2018-03-19T01:32:59.136Z,47.79
2018-03-19T01:35:28.382Z,47.76
2018-03-19T01:37:57.653Z,47.63
2018-03-19T01:40:27.838Z,48.17
2018-03-19T01:42:57.040Z,47.76
2018-03-19T01:45:26.481Z,47.61
2018-03-19T01:47:55.703Z,48.08
2018-03-19T01:50:24.975Z,48.49
2018-03-19T01:52:54.983Z,48.25
2018-03-19T01:55:24.987Z,48.45
2018-03-19T01:57:54.255Z,48.46
2018-03-19T02:00:23.450Z,48.73
2018-03-19T02:02:53.617Z,48.44
2018-03-19T02:05:22.839Z,48.80
2018-03-19T02:07:52.063Z,48.51
2018-03-19T02:10:21.306Z,48.63
2018-03-19T02:12:50.639Z,48.62
2018-03-19T02:15:19.898Z,49.11
2018-03-19T02:17:49.142Z,48.49
2018-03-19T02:20:19.099Z,48.87
2018-03-19T02:22:48.398Z,48.73
2018-03-19T02:25:17.595Z,48.94
2018-03-19T02:27:47.108Z,48.61
2018-03-19T02:30:16.338Z,49.42
2018-03-19T02:32:46.535Z,49.42
2018-03-19T02:35:15.790Z,49.21
2018-03-19T02:37:45.027Z,49.54
2018-03-19T02:40:16.626Z,49.56
2018-03-19T02:42:45.935Z,49.32
2018-03-19T02:45:15.280Z,49.85
2018-03-19T02:47:44.608Z,49.36
2018-03-19T02:50:14.666Z,49.62
2018-03-19T02:52:43.881Z,49.73
2018-03-19T02:55:13.146Z,50.08
2018-03-19T02:57:42.400Z,49.68
2018-03-19T03:00:11.642Z,49.59
2018-03-19T03:02:40.894Z,49.74
2018-03-19T03:05:10.591Z,49.44
2018-03-19T03:07:39.823Z,49.59
2018-03-19T03:10:09.836Z,49.64
2018-03-19T03:12:39.804Z,50.03
2018-03-19T03:15:09.027Z,49.89
2018-03-19T03:17:39.031Z,50.14
2018-03-19T03:20:08.268Z,50.02
2018-03-19T03:22:38.272Z,50.49
2018-03-19T03:25:07.541Z,49.98
2018-03-19T03:27:37.427Z,50.54
2018-03-19T03:30:06.679Z,50.57
2018-03-19T03:32:36.758Z,50.64
2018-03-19T03:35:06.001Z,50.45
2018-03-19T03:37:35.438Z,50.68
2018-03-19T03:40:04.706Z,50.71
2018-03-19T03:42:34.708Z,50.81
2018-03-19T03:45:03.945Z,51.11
2018-03-19T03:47:33.214Z,51.50
2018-03-19T03:50:02.462Z,51.34
2018-03-19T03:52:31.915Z,51.42
2018-03-19T03:55:01.147Z,51.33
2018-03-19T03:57:30.463Z,51.42
2018-03-19T03:59:59.678Z,51.48
2018-03-19T04:02:29.083Z,51.75
2018-03-19T04:04:58.319Z,52.07
2018-03-19T04:07:28.329Z,51.83
2018-03-19T04:09:58.326Z,52.04
2018-03-19T04:12:27.627Z,52.21
2018-03-19T04:14:56.863Z,52.45
2018-03-19T04:17:26.067Z,52.58
2018-03-19T04:19:55.303Z,53.05
2018-03-19T04:22:24.519Z,52.91
2018-03-19T04:24:53.795Z,52.89
2018-03-19T04:27:23.079Z,52.99
2018-03-19T04:29:52.334Z,52.98
2018-03-19T04:32:22.317Z,52.87
2018-03-19T04:34:51.606Z,53.07
2018-03-19T04:37:21.706Z,53.09
2018-03-19T04:39:50.911Z,53.18
2018-03-19T04:42:20.106Z,53.11
2018-03-19T04:44:49.472Z,53.28
2018-03-19T04:47:19.517Z,53.37
2018-03-19T04:49:48.783Z,53.80
2018-03-19T04:52:18.746Z,53.53
2018-03-19T04:54:48.714Z,54.12
2018-03-19T04:57:17.937Z,53.82
2018-03-19T04:59:47.174Z,53.95
2018-03-19T05:02:16.546Z,53.95
2018-03-19T05:04:45.780Z,54.38
2018-03-19T05:07:15.063Z,53.78
2018-03-19T05:09:44.277Z,54.47
2018-03-19T05:12:13.640Z,54.15
2018-03-19T05:14:42.942Z,54.56
2018-03-19T05:17:12.929Z,54.48
2018-03-19T05:19:42.899Z,54.34
2018-03-19T05:22:12.117Z,54.14
2018-03-19T05:24:41.413Z,54.33
2018-03-19T05:27:10.637Z,54.69
2018-03-19T05:29:39.896Z,54.80
2018-03-19T05:32:09.146Z,54.65
2018-03-19T05:34:38.355Z,54.81
2018-03-19T05:37:07.786Z,55.13
2018-03-19T05:39:37.035Z,54.89
2018-03-19T05:42:07.022Z,55.07
2018-03-19T05:44:36.237Z,54.90
2018-03-19T05:47:05.587Z,55.25
2018-03-19T05:49:34.827Z,55.31
2018-03-19T05:52:04.889Z,55.06
2018-03-19T05:54:34.151Z,54.63
2018-03-19T05:57:04.154Z,54.83
2018-03-19T05:59:33.393Z,54.65
2018-03-19T06:02:02.655Z,54.89
2018-03-19T06:04:32.074Z,54.97
2018-03-19T06:07:01.296Z,55.07
2018-03-19T06:09:30.525Z,55.21
2018-03-19T06:11:59.763Z,55.00
2018-03-19T06:14:29.757Z,54.99
2018-03-19T06:16:59.034Z,54.70
2018-03-19T06:19:28.364Z,54.45
2018-03-19T06:21:57.618Z,54.87
2018-03-19T06:24:26.863Z,54.71
2018-03-19T06:26:56.099Z,54.11
2018-03-19T06:29:25.309Z,54.32
2018-03-19T06:31:54.520Z,54.49
2018-03-19T06:34:23.789Z,54.60
2018-03-19T06:36:53.002Z,54.25
2018-03-19T06:39:22.256Z,54.23
2018-03-19T06:41:51.447Z,54.10
2018-03-19T06:44:21.509Z,53.96
2018-03-19T06:46:50.767Z,53.66
2018-03-19T06:49:20.884Z,53.66
2018-03-19T06:51:50.191Z,53.50
2018-03-19T06:54:20.186Z,53.85
2018-03-19T06:56:49.425Z,53.75
2018-03-19T06:59:18.666Z,52.84
2018-03-19T07:01:48.030Z,53.41
2018-03-19T07:04:17.251Z,52.59
2018-03-19T07:06:46.498Z,52.77
2018-03-19T07:09:16.464Z,52.98
2018-03-19T07:11:46.005Z,52.17
2018-03-19T07:14:15.285Z,52.13
2018-03-19T07:16:44.497Z,52.46
2018-03-19T07:19:13.745Z,52.19
2018-03-19T07:21:43.836Z,51.21
2018-03-19T07:24:13.938Z,51.07
2018-03-19T07:26:43.162Z,51.21
2018-03-19T07:29:12.406Z,51.10
2018-03-19T07:31:41.637Z,51.04
2018-03-19T07:34:10.860Z,50.38
2018-03-19T07:36:40.826Z,50.10
2018-03-19T07:39:10.842Z,50.05
2018-03-19T07:41:40.083Z,50.48
2018-03-19T07:44:10.079Z,50.58
2018-03-19T07:46:39.292Z,50.37
2018-03-19T07:49:09.293Z,49.54
2018-03-19T07:51:39.289Z,49.36
2018-03-19T07:54:08.823Z,49.73
2018-03-19T07:56:38.802Z,49.72
2018-03-19T07:59:08.158Z,49.78
2018-03-19T08:01:38.195Z,49.18
2018-03-19T08:04:07.424Z,49.31
2018-03-19T08:06:36.678Z,49.01
2018-03-19T08:09:05.879Z,49.07
2018-03-19T08:11:35.137Z,49.22
2018-03-19T08:14:04.369Z,49.23
2018-03-19T08:16:33.580Z,48.52
2018-03-19T08:19:02.833Z,48.64
2018-03-19T08:21:32.911Z,48.42
2018-03-19T08:24:02.199Z,47.97
2018-03-19T08:26:31.394Z,48.38
2018-03-19T08:29:00.623Z,48.54
2018-03-19T08:31:29.842Z,48.44
2018-03-19T08:33:59.931Z,47.84
2018-03-19T08:36:29.399Z,47.87
2018-03-19T08:38:58.655Z,47.69
2018-03-19T08:41:27.940Z,47.45
2018-03-19T08:43:57.142Z,46.81
2018-03-19T08:46:26.375Z,47.12
2018-03-19T08:48:56.343Z,47.55
2018-03-19T08:51:25.599Z,47.95
2018-03-19T08:53:55.055Z,47.16
2018-03-19T08:56:24.307Z,47.22
2018-03-19T08:58:53.517Z,46.70
2018-03-19T09:01:22.750Z,46.70
2018-03-19T09:03:51.970Z,46.46
2018-03-19T09:06:22.021Z,46.52
2018-03-19T09:08:51.948Z,46.25
2018-03-19T09:11:21.159Z,46.03
2018-03-19T09:13:50.384Z,46.46
2018-03-19T09:16:19.624Z,45.99
2018-03-19T09:18:48.827Z,46.44
2018-03-19T09:21:18.099Z,46.23
2018-03-19T09:23:48.228Z,46.18
2018-03-19T09:26:17.659Z,45.53
2018-03-19T09:28:47.642Z,46.34
2018-03-19T09:31:17.756Z,45.55
2018-03-19T09:33:47.743Z,45.17
2018-03-19T09:36:16.930Z,45.27
2018-03-19T09:38:47.033Z,45.46
2018-03-19T09:41:16.288Z,45.34
2018-03-19T09:43:45.508Z,45.28
2018-03-19T09:46:14.719Z,45.64
2018-03-19T09:48:44.205Z,45.83
2018-03-19T09:51:19.874Z,46.00
2018-03-19T09:53:49.114Z,45.35
2018-03-19T09:56:18.372Z,43.76
2018-03-19T09:58:47.777Z,43.75
2018-03-19T10:01:16.977Z,44.28
2018-03-19T10:03:46.403Z,44.69
2018-03-19T10:06:16.040Z,44.50
2018-03-19T10:08:46.051Z,44.52
2018-03-19T10:11:16.035Z,44.56
2018-03-19T10:13:45.263Z,44.00
2018-03-19T10:16:15.243Z,44.06
2018-03-19T10:18:44.501Z,44.04
2018-03-19T10:21:13.947Z,43.63
2018-03-19T10:23:43.215Z,44.68
2018-03-19T10:26:12.446Z,44.03
2018-03-19T10:28:41.648Z,44.30
2018-03-19T10:31:11.069Z,43.67
2018-03-19T10:33:41.106Z,44.84
2018-03-19T10:36:10.332Z,44.51
2018-03-19T10:38:39.603Z,44.31
2018-03-19T10:41:08.789Z,43.98
2018-03-19T10:43:38.783Z,43.21
2018-03-19T10:46:08.077Z,43.35
2018-03-19T10:48:37.310Z,43.63
2018-03-19T10:51:06.536Z,43.21
2018-03-19T10:53:35.986Z,43.59
2018-03-19T10:56:05.210Z,43.53
2018-03-19T10:58:34.422Z,43.47
2018-03-19T11:01:09.123Z,43.10
2018-03-19T11:03:39.705Z,43.95
2018-03-19T11:06:14.347Z,43.98
2018-03-19T11:08:50.470Z,43.80
2018-03-19T11:11:19.742Z,43.99
2018-03-19T11:13:49.930Z,43.79
2018-03-19T11:16:19.214Z,43.31
2018-03-19T11:18:48.491Z,43.42
2018-03-19T11:21:18.875Z,44.55
2018-03-19T11:23:48.861Z,43.82
2018-03-19T11:26:18.063Z,43.90
2018-03-19T11:28:47.277Z,43.73
2018-03-19T11:31:16.484Z,43.38
2018-03-19T11:33:46.509Z,43.07
2018-03-19T11:36:15.723Z,42.88
2018-03-19T11:38:45.686Z,43.88
2018-03-19T11:41:15.941Z,43.12
2018-03-19T11:43:45.159Z,43.89
2018-03-19T11:46:14.383Z,43.32
2018-03-19T11:48:43.602Z,42.54
2018-03-19T11:51:12.819Z,42.62
2018-03-19T11:53:42.364Z,43.29
2018-03-19T11:56:11.666Z,43.45
2018-03-19T11:58:40.911Z,42.99
2018-03-19T12:01:10.437Z,41.97
2018-03-19T12:03:40.440Z,42.39
2018-03-19T12:06:09.653Z,42.63
2018-03-19T12:08:39.615Z,42.20
2018-03-19T12:11:08.999Z,41.54
2018-03-19T12:13:38.204Z,41.64
2018-03-19T12:16:07.570Z,42.22
2018-03-19T12:18:37.574Z,43.12
2018-03-19T12:21:07.536Z,42.78
2018-03-19T12:23:36.775Z,43.77
2018-03-19T12:26:06.029Z,42.54
2018-03-19T12:28:35.227Z,42.31
2018-03-19T12:31:04.498Z,43.00
2018-03-19T12:33:34.481Z,42.20
2018-03-19T12:36:03.951Z,42.88
2018-03-19T12:38:33.155Z,42.91
2018-03-19T12:41:02.387Z,43.39
2018-03-19T12:43:31.602Z,43.11
2018-03-19T12:46:01.619Z,41.66
2018-03-19T12:48:30.896Z,41.93
2018-03-19T12:51:00.154Z,43.06
2018-03-19T12:53:29.333Z,42.43
2018-03-19T12:55:58.584Z,41.76
2018-03-19T12:58:27.890Z,41.74
2018-03-19T13:00:57.157Z,41.84
2018-03-19T13:03:26.388Z,42.39
2018-03-19T13:05:55.731Z,42.59
2018-03-19T13:08:24.983Z,42.13
2018-03-19T13:10:54.178Z,43.02
2018-03-19T13:13:23.684Z,42.27
2018-03-19T13:15:52.892Z,41.82
2018-03-19T13:18:22.097Z,41.73
2018-03-19T13:20:52.070Z,42.25
2018-03-19T13:23:21.381Z,41.90
2018-03-19T13:25:50.602Z,41.37
2018-03-19T13:28:20.586Z,43.07
2018-03-19T13:30:49.818Z,42.20
2018-03-19T13:33:19.006Z,42.34
2018-03-19T13:35:48.222Z,41.08
2018-03-19T13:38:18.250Z,41.63
2018-03-19T13:40:48.215Z,41.94
2018-03-19T13:43:17.435Z,42.13
2018-03-19T13:45:46.730Z,42.45
2018-03-19T13:48:16.547Z,43.08
2018-03-19T13:50:45.747Z,41.59
2018-03-19T13:53:14.992Z,41.84
2018-03-19T13:55:44.226Z,41.28
2018-03-19T13:58:13.778Z,42.12
2018-03-19T14:00:43.739Z,41.25
2018-03-19T14:03:13.012Z,40.86
2018-03-19T14:05:42.295Z,41.73
2018-03-19T14:08:12.266Z,42.25
2018-03-19T14:10:41.484Z,42.85
2018-03-19T14:13:10.683Z,41.54
2018-03-19T14:15:40.662Z,41.51
2018-03-19T14:18:09.874Z,41.83
2018-03-19T14:20:39.082Z,41.68
2018-03-19T14:23:08.289Z,41.98
2018-03-19T14:25:37.486Z,41.75
2018-03-19T14:28:07.472Z,41.26
2018-03-19T14:30:36.678Z,41.96
2018-03-19T14:33:06.911Z,40.78
2018-03-19T14:35:36.930Z,41.07
2018-03-19T14:38:06.404Z,41.09
2018-03-19T14:40:35.639Z,40.57
2018-03-19T14:43:05.705Z,40.77
2018-03-19T14:45:34.902Z,40.83
2018-03-19T14:48:04.246Z,41.49
2018-03-19T14:50:33.605Z,42.05
2018-03-19T14:53:02.782Z,41.86
2018-03-19T14:55:32.746Z,41.80
2018-03-19T14:58:03.899Z,41.37
2018-03-19T15:00:33.151Z,40.68
2018-03-19T15:03:02.451Z,40.60
2018-03-19T15:05:31.687Z,40.42
2018-03-19T15:08:00.934Z,40.53
2018-03-19T15:10:30.830Z,40.22
2018-03-19T15:13:01.338Z,40.29
2018-03-19T15:15:31.378Z,39.88
2018-03-19T15:18:00.597Z,40.44
2018-03-19T15:20:29.866Z,40.44
2018-03-19T15:22:59.107Z,40.29
2018-03-19T15:25:28.399Z,40.09
2018-03-19T15:27:57.581Z,39.38
2018-03-19T15:30:26.789Z,40.03
2018-03-19T15:32:55.948Z,39.10
2018-03-19T15:35:26.000Z,39.45
2018-03-19T15:37:55.153Z,38.93
2018-03-19T15:40:24.558Z,38.57
2018-03-19T15:42:53.763Z,38.57
2018-03-19T15:45:23.827Z,38.35
2018-03-19T15:47:53.056Z,38.62
2018-03-19T15:50:22.298Z,38.32
2018-03-19T15:52:51.546Z,39.23
2018-03-19T15:55:20.743Z,39.09
2018-03-19T15:57:50.035Z,37.97
2018-03-19T16:00:19.370Z,38.76
2018-03-19T16:02:49.394Z,39.45
2018-03-19T16:05:19.367Z,38.99
2018-03-19T16:07:48.607Z,38.83
2018-03-19T16:10:18.595Z,38.47
2018-03-19T16:12:47.815Z,38.15
2018-03-19T16:15:17.815Z,38.63
2018-03-19T16:17:47.034Z,37.95
2018-03-19T16:20:17.022Z,38.39
2018-03-19T16:22:46.273Z,38.74
2018-03-19T16:25:15.475Z,38.94
2018-03-19T16:27:44.713Z,38.56
2018-03-19T16:30:13.919Z,38.48
2018-03-19T16:32:44.664Z,38.94
2018-03-19T16:35:15.453Z,38.84
2018-03-19T16:37:44.671Z,37.90
2018-03-19T16:40:13.974Z,38.37
2018-03-19T16:42:43.226Z,37.96
2018-03-19T16:45:12.433Z,38.21
2018-03-19T16:47:42.358Z,38.20
2018-03-19T16:50:11.549Z,38.91
2018-03-19T16:52:40.763Z,38.39
2018-03-19T16:55:09.986Z,37.99
2018-03-19T16:57:40.044Z,38.09
2018-03-19T17:00:09.216Z,38.47
2018-03-19T17:02:39.511Z,38.58
2018-03-19T17:05:08.772Z,38.10
2018-03-19T17:07:38.005Z,38.13
2018-03-19T17:10:07.235Z,38.26
2018-03-19T17:12:37.216Z,38.54
2018-03-19T17:15:06.562Z,38.72
2018-03-19T17:17:36.522Z,38.59
2018-03-19T17:20:05.806Z,38.78
2018-03-19T17:22:35.035Z,39.07
2018-03-19T17:25:04.432Z,39.55
2018-03-19T17:27:33.663Z,38.80
2018-03-19T17:30:03.704Z,39.23
2018-03-19T17:32:33.085Z,39.36
2018-03-19T17:35:03.179Z,39.91
2018-03-19T17:37:32.421Z,39.58
2018-03-19T17:40:01.639Z,39.37
2018-03-19T17:42:30.978Z,39.49
2018-03-19T17:45:00.186Z,39.22
2018-03-19T17:47:30.181Z,39.44
2018-03-19T17:49:59.437Z,39.38
2018-03-19T17:52:28.661Z,39.65
2018-03-19T17:54:57.930Z,40.13
2018-03-19T17:57:27.187Z,40.33
2018-03-19T17:59:56.432Z,39.46
2018-03-19T18:02:25.624Z,39.84
2018-03-19T18:04:55.722Z,39.57
2018-03-19T18:07:25.009Z,39.48
2018-03-19T18:09:54.198Z,39.65
2018-03-19T18:12:23.623Z,39.86
2018-03-19T18:14:52.842Z,39.95
2018-03-19T18:17:22.055Z,40.01
2018-03-19T18:19:51.291Z,39.61
2018-03-19T18:22:20.490Z,39.82
2018-03-19T18:24:50.625Z,39.87
2018-03-19T18:27:19.834Z,38.68
2018-03-19T18:29:49.085Z,39.26
2018-03-19T18:32:18.415Z,38.83
2018-03-19T18:34:47.640Z,39.07
2018-03-19T18:37:16.831Z,38.44
2018-03-19T18:39:46.130Z,38.68
2018-03-19T18:42:15.330Z,39.25
2018-03-19T18:44:44.566Z,39.06
2018-03-19T18:47:13.774Z,38.98
2018-03-19T18:49:42.983Z,39.22
2018-03-19T18:52:12.180Z,40.37
2018-03-19T18:54:41.433Z,40.95
2018-03-19T18:57:10.632Z,39.50
2018-03-19T18:59:39.986Z,40.52
2018-03-19T19:02:09.199Z,41.13
2018-03-19T19:04:39.228Z,42.27
2018-03-19T19:07:08.524Z,41.72
2018-03-19T19:09:38.570Z,42.59
2018-03-19T19:12:07.811Z,43.11
2018-03-19T19:14:37.819Z,43.61
2018-03-19T19:17:07.146Z,44.73
2018-03-19T19:19:37.122Z,44.74
2018-03-19T19:22:06.649Z,45.24
2018-03-19T19:24:35.976Z,45.54
2018-03-19T19:27:05.217Z,45.71
2018-03-19T19:29:34.466Z,46.02
2018-03-19T19:32:03.699Z,46.61
2018-03-19T19:34:32.925Z,46.35
2018-03-19T19:37:02.162Z,47.51
2018-03-19T19:39:32.206Z,47.66
2018-03-19T19:42:01.466Z,47.76
2018-03-19T19:44:31.497Z,48.01
2018-03-19T19:47:01.913Z,47.83
2018-03-19T19:49:31.887Z,48.69
2018-03-19T19:52:02.363Z,48.83
2018-03-19T19:54:35.313Z,48.80
2018-03-19T19:57:04.672Z,49.34
2018-03-19T19:59:33.887Z,49.96
2018-03-19T20:02:03.091Z,49.59
2018-03-19T20:04:32.333Z,49.70
2018-03-19T20:07:02.327Z,50.30
2018-03-19T20:09:32.548Z,49.95
2018-03-19T20:12:01.766Z,50.27
2018-03-19T20:14:31.791Z,50.80
2018-03-19T20:17:01.129Z,50.48
2018-03-19T20:19:30.335Z,51.28
2018-03-19T20:21:59.548Z,51.49
2018-03-19T20:24:28.827Z,51.41
2018-03-19T20:26:58.059Z,51.00
2018-03-19T20:29:27.315Z,51.69
2018-03-19T20:31:56.545Z,52.05
2018-03-19T20:34:25.804Z,52.25
2018-03-19T20:36:55.976Z,52.52
2018-03-19T20:39:25.234Z,52.01
2018-03-19T20:41:54.464Z,52.65
2018-03-19T20:44:25.303Z,53.23
2018-03-19T20:46:54.803Z,52.96
2018-03-19T20:49:24.074Z,52.61
2018-03-19T20:51:53.356Z,52.53
2018-03-19T20:54:22.649Z,52.65
2018-03-19T20:56:51.850Z,52.67
2018-03-19T20:59:21.039Z,52.65
2018-03-19T21:01:50.277Z,53.00
2018-03-19T21:04:19.510Z,52.41
2018-03-19T21:06:49.531Z,52.93
2018-03-19T21:09:20.140Z,52.88
2018-03-19T21:11:49.394Z,53.03
2018-03-19T21:14:18.631Z,53.15
2018-03-19T21:16:47.891Z,53.40
2018-03-19T21:19:17.112Z,54.09
2018-03-19T21:21:46.344Z,53.66
2018-03-19T21:24:16.323Z,54.23
2018-03-19T21:26:45.599Z,54.67
2018-03-19T21:29:14.807Z,54.64
2018-03-19T21:31:44.076Z,55.20
2018-03-19T21:34:13.451Z,55.39
2018-03-19T21:36:43.479Z,55.82
2018-03-19T21:39:13.490Z,55.81
2018-03-19T21:41:43.533Z,55.96
2018-03-19T21:44:13.523Z,56.78
2018-03-19T21:46:43.527Z,56.87
2018-03-19T21:49:12.984Z,57.21
2018-03-19T21:51:42.274Z,57.49
2018-03-19T21:54:12.267Z,58.37
2018-03-19T21:56:41.510Z,58.22
2018-03-19T21:59:10.792Z,58.73
2018-03-19T22:01:40.043Z,58.97
2018-03-19T22:04:09.308Z,59.38
2018-03-19T22:06:38.541Z,59.53
2018-03-19T22:09:07.800Z,59.58
2018-03-19T22:11:36.990Z,59.76
2018-03-19T22:14:06.226Z,60.20
2018-03-19T22:16:35.451Z,59.82
2018-03-19T22:19:05.482Z,59.75
2018-03-19T22:21:34.727Z,60.12
2018-03-19T22:24:03.956Z,60.92
2018-03-19T22:26:33.259Z,60.64
2018-03-19T22:29:03.261Z,60.94
2018-03-19T22:31:32.597Z,60.89
2018-03-19T22:34:01.810Z,61.40
2018-03-19T22:36:31.068Z,61.20
2018-03-19T22:39:00.279Z,62.63
2018-03-19T22:41:29.588Z,63.08
2018-03-19T22:43:58.806Z,63.13
2018-03-19T22:46:28.110Z,63.15
2018-03-19T22:48:57.337Z,63.05
2018-03-19T22:51:27.696Z,62.94
2018-03-19T22:53:56.971Z,62.91
2018-03-19T22:56:26.327Z,63.14
2018-03-19T22:58:55.575Z,62.66
2018-03-19T23:01:24.823Z,62.58
2018-03-19T23:03:54.112Z,62.32
2018-03-19T23:06:23.357Z,63.75
2018-03-19T23:08:52.601Z,64.26
2018-03-19T23:11:22.748Z,64.15
2018-03-19T23:13:51.978Z,63.82
2018-03-19T23:16:21.202Z,63.42
2018-03-19T23:18:51.210Z,63.53
2018-03-19T23:21:21.209Z,63.09
2018-03-19T23:23:50.443Z,63.47
2018-03-19T23:26:20.035Z,63.33
2018-03-19T23:28:49.312Z,63.48
2018-03-19T23:31:19.334Z,63.57
2018-03-19T23:33:48.574Z,62.95
2018-03-19T23:36:17.842Z,63.27
2018-03-19T23:38:47.895Z,63.99
2018-03-19T23:41:17.138Z,64.47
2018-03-19T23:43:46.397Z,63.56
2018-03-19T23:46:15.668Z,64.21
2018-03-19T23:48:44.945Z,64.91
2018-03-19T23:51:14.162Z,64.81
2018-03-19T23:53:44.296Z,64.50
2018-03-19T23:56:13.558Z,64.16
2018-03-19T23:58:42.812Z,64.75
